sensor_id;sensor_type;location;lat;lon;timestamp;P1;P2;P0
24012;PMS7003;12220;50.194;18.948;2022-07-12T00:00:16;1;1;1
24012;PMS7003;12220;50.194;18.948;2022-07-12T00:02:22;3;3;2
24012;PMS7003;12220;50.194;18.948;2022-07-12T00:04:28;2;2;2
24012;PMS7003;12220;50.194;18.948;2022-07-12T00:06:29;2;2;2
24012;PMS7003;12220;50.194;18.948;2022-07-12T00:08:31;3;3;2
24012;PMS7003;12220;50.194;18.948;2022-07-12T00:10:32;2;2;2
24012;PMS7003;12220;50.194;18.948;2022-07-12T00:12:43;1;1;1
24012;PMS7003;12220;50.194;18.948;2022-07-12T00:14:48;2;2;2
24012;PMS7003;12220;50.194;18.948;2022-07-12T00:16:50;2;2;1
24012;PMS7003;12220;50.194;18.948;2022-07-12T00:18:54;1;1;1
24012;PMS7003;12220;50.194;18.948;2022-07-12T00:20:58;2;2;1
24012;PMS7003;12220;50.194;18.948;2022-07-12T00:22:59;2;2;2
24012;PMS7003;12220;50.194;18.948;2022-07-12T00:25:01;2;2;2
24012;PMS7003;12220;50.194;18.948;2022-07-12T00:27:02;1;1;1
24012;PMS7003;12220;50.194;18.948;2022-07-12T00:29:13;2;2;2
24012;PMS7003;12220;50.194;18.948;2022-07-12T00:31:14;1;1;1
24012;PMS7003;12220;50.194;18.948;2022-07-12T00:33:16;2;2;2
24012;PMS7003;12220;50.194;18.948;2022-07-12T00:35:17;2;2;1
24012;PMS7003;12220;50.194;18.948;2022-07-12T00:37:28;2;2;2
24012;PMS7003;12220;50.194;18.948;2022-07-12T00:39:29;2;2;2
24012;PMS7003;12220;50.194;18.948;2022-07-12T00:41:30;3;3;3
24012;PMS7003;12220;50.194;18.948;2022-07-12T00:43:32;2;1;1
24012;PMS7003;12220;50.194;18.948;2022-07-12T00:45:43;2;2;2
24012;PMS7003;12220;50.194;18.948;2022-07-12T00:47:44;1;1;1
24012;PMS7003;12220;50.194;18.948;2022-07-12T00:49:51;1;1;1
24012;PMS7003;12220;50.194;18.948;2022-07-12T00:51:52;3;2;2
24012;PMS7003;12220;50.194;18.948;2022-07-12T00:53:57;0;0;0
24012;PMS7003;12220;50.194;18.948;2022-07-12T00:56:00;0;0;0
24012;PMS7003;12220;50.194;18.948;2022-07-12T00:58:01;2;2;2
24012;PMS7003;12220;50.194;18.948;2022-07-12T01:00:03;3;3;3
24012;PMS7003;12220;50.194;18.948;2022-07-12T01:02:12;1;1;1
24012;PMS7003;12220;50.194;18.948;2022-07-12T01:04:14;2;2;1
24012;PMS7003;12220;50.194;18.948;2022-07-12T01:06:19;2;2;2
24012;PMS7003;12220;50.194;18.948;2022-07-12T01:08:21;3;3;2
24012;PMS7003;12220;50.194;18.948;2022-07-12T01:10:27;2;2;2
24012;PMS7003;12220;50.194;18.948;2022-07-12T01:12:31;2;2;2
24012;PMS7003;12220;50.194;18.948;2022-07-12T01:14:33;1;1;1
24012;PMS7003;12220;50.194;18.948;2022-07-12T01:16:37;2;2;2
24012;PMS7003;12220;50.194;18.948;2022-07-12T01:18:42;3;3;3
24012;PMS7003;12220;50.194;18.948;2022-07-12T01:20:45;1;1;1
24012;PMS7003;12220;50.194;18.948;2022-07-12T01:22:51;3;3;3
24012;PMS7003;12220;50.194;18.948;2022-07-12T01:25:02;3;3;2
24012;PMS7003;12220;50.194;18.948;2022-07-12T01:27:05;1;1;1
24012;PMS7003;12220;50.194;18.948;2022-07-12T01:29:07;1;1;1
24012;PMS7003;12220;50.194;18.948;2022-07-12T01:31:12;3;3;3
24012;PMS7003;12220;50.194;18.948;2022-07-12T01:33:13;3;1;1
24012;PMS7003;12220;50.194;18.948;2022-07-12T01:35:16;3;3;3
24012;PMS7003;12220;50.194;18.948;2022-07-12T01:37:19;2;2;1
24012;PMS7003;12220;50.194;18.948;2022-07-12T01:39:21;1;0;0
24012;PMS7003;12220;50.194;18.948;2022-07-12T01:41:23;1;1;1
24012;PMS7003;12220;50.194;18.948;2022-07-12T01:43:31;0;0;0
24012;PMS7003;12220;50.194;18.948;2022-07-12T01:45:33;2;1;1
24012;PMS7003;12220;50.194;18.948;2022-07-12T01:47:34;1;0;0
24012;PMS7003;12220;50.194;18.948;2022-07-12T01:49:37;0;0;0
24012;PMS7003;12220;50.194;18.948;2022-07-12T01:51:46;2;2;2
24012;PMS7003;12220;50.194;18.948;2022-07-12T01:53:47;1;1;1
24012;PMS7003;12220;50.194;18.948;2022-07-12T01:55:49;1;1;1
24012;PMS7003;12220;50.194;18.948;2022-07-12T01:57:51;1;1;1
24012;PMS7003;12220;50.194;18.948;2022-07-12T02:00:02;1;1;1
24012;PMS7003;12220;50.194;18.948;2022-07-12T02:02:07;0;0;0
24012;PMS7003;12220;50.194;18.948;2022-07-12T02:04:08;1;1;1
24012;PMS7003;12220;50.194;18.948;2022-07-12T02:06:09;0;0;0
24012;PMS7003;12220;50.194;18.948;2022-07-12T02:08:16;2;2;2
24012;PMS7003;12220;50.194;18.948;2022-07-12T02:10:17;0;0;0
24012;PMS7003;12220;50.194;18.948;2022-07-12T02:12:18;1;1;1
24012;PMS7003;12220;50.194;18.948;2022-07-12T02:14:20;2;2;2
24012;PMS7003;12220;50.194;18.948;2022-07-12T02:16:31;0;0;0
24012;PMS7003;12220;50.194;18.948;2022-07-12T02:18:32;1;1;1
24012;PMS7003;12220;50.194;18.948;2022-07-12T02:20:34;1;1;0
24012;PMS7003;12220;50.194;18.948;2022-07-12T02:22:35;1;1;1
24012;PMS7003;12220;50.194;18.948;2022-07-12T02:24:46;1;1;1
24012;PMS7003;12220;50.194;18.948;2022-07-12T02:26:47;1;1;1
24012;PMS7003;12220;50.194;18.948;2022-07-12T02:28:48;2;1;1
24012;PMS7003;12220;50.194;18.948;2022-07-12T02:30:50;1;1;1
24012;PMS7003;12220;50.194;18.948;2022-07-12T02:33:00;0;0;0
24012;PMS7003;12220;50.194;18.948;2022-07-12T02:35:03;0;0;0
24012;PMS7003;12220;50.194;18.948;2022-07-12T02:37:05;0;0;0
24012;PMS7003;12220;50.194;18.948;2022-07-12T02:39:06;1;1;1
24012;PMS7003;12220;50.194;18.948;2022-07-12T02:41:15;1;1;1
24012;PMS7003;12220;50.194;18.948;2022-07-12T02:43:17;2;2;2
24012;PMS7003;12220;50.194;18.948;2022-07-12T02:45:18;1;1;1
24012;PMS7003;12220;50.194;18.948;2022-07-12T02:47:20;1;1;1
24012;PMS7003;12220;50.194;18.948;2022-07-12T02:49:30;1;1;1
24012;PMS7003;12220;50.194;18.948;2022-07-12T02:51:31;1;1;1
24012;PMS7003;12220;50.194;18.948;2022-07-12T02:53:33;0;0;0
24012;PMS7003;12220;50.194;18.948;2022-07-12T02:55:35;2;2;2
24012;PMS7003;12220;50.194;18.948;2022-07-12T02:57:45;2;0;0
24012;PMS7003;12220;50.194;18.948;2022-07-12T02:59:46;2;2;2
24012;PMS7003;12220;50.194;18.948;2022-07-12T03:01:48;2;2;2
24012;PMS7003;12220;50.194;18.948;2022-07-12T03:03:49;2;2;2
24012;PMS7003;12220;50.194;18.948;2022-07-12T03:06:00;1;1;1
24012;PMS7003;12220;50.194;18.948;2022-07-12T03:08:02;6;2;2
24012;PMS7003;12220;50.194;18.948;2022-07-12T03:10:05;2;2;1
24012;PMS7003;12220;50.194;18.948;2022-07-12T03:12:07;2;1;1
24012;PMS7003;12220;50.194;18.948;2022-07-12T03:14:15;2;2;2
24012;PMS7003;12220;50.194;18.948;2022-07-12T03:16:19;2;1;1
24012;PMS7003;12220;50.194;18.948;2022-07-12T03:18:20;1;1;1
24012;PMS7003;12220;50.194;18.948;2022-07-12T03:20:22;1;1;1
24012;PMS7003;12220;50.194;18.948;2022-07-12T03:22:32;1;1;1
24012;PMS7003;12220;50.194;18.948;2022-07-12T03:24:33;2;2;1
24012;PMS7003;12220;50.194;18.948;2022-07-12T03:26:35;1;1;1
24012;PMS7003;12220;50.194;18.948;2022-07-12T03:28:36;2;1;1
24012;PMS7003;12220;50.194;18.948;2022-07-12T03:30:45;2;2;2
24012;PMS7003;12220;50.194;18.948;2022-07-12T03:32:46;2;2;1
24012;PMS7003;12220;50.194;18.948;2022-07-12T03:34:50;1;1;1
24012;PMS7003;12220;50.194;18.948;2022-07-12T03:36:55;4;2;2
24012;PMS7003;12220;50.194;18.948;2022-07-12T03:39:00;1;1;1
24012;PMS7003;12220;50.194;18.948;2022-07-12T03:41:01;1;1;1
24012;PMS7003;12220;50.194;18.948;2022-07-12T03:43:03;0;0;0
24012;PMS7003;12220;50.194;18.948;2022-07-12T03:45:05;1;1;1
24012;PMS7003;12220;50.194;18.948;2022-07-12T03:47:14;4;4;4
24012;PMS7003;12220;50.194;18.948;2022-07-12T03:49:16;3;3;2
24012;PMS7003;12220;50.194;18.948;2022-07-12T03:51:17;2;2;2
24012;PMS7003;12220;50.194;18.948;2022-07-12T03:53:18;5;4;3
24012;PMS7003;12220;50.194;18.948;2022-07-12T03:55:29;2;2;2
24012;PMS7003;12220;50.194;18.948;2022-07-12T03:57:31;3;3;2
24012;PMS7003;12220;50.194;18.948;2022-07-12T03:59:32;2;2;1
24012;PMS7003;12220;50.194;18.948;2022-07-12T04:01:34;3;3;3
24012;PMS7003;12220;50.194;18.948;2022-07-12T04:03:44;2;2;1
24012;PMS7003;12220;50.194;18.948;2022-07-12T04:05:46;2;2;2
24012;PMS7003;12220;50.194;18.948;2022-07-12T04:07:47;0;0;0
24012;PMS7003;12220;50.194;18.948;2022-07-12T04:09:48;1;1;1
24012;PMS7003;12220;50.194;18.948;2022-07-12T04:11:59;4;4;4
24012;PMS7003;12220;50.194;18.948;2022-07-12T04:14:00;5;4;4
24012;PMS7003;12220;50.194;18.948;2022-07-12T04:16:02;4;4;3
24012;PMS7003;12220;50.194;18.948;2022-07-12T04:18:04;4;4;4
24012;PMS7003;12220;50.194;18.948;2022-07-12T04:20:14;4;4;4
24012;PMS7003;12220;50.194;18.948;2022-07-12T04:22:16;3;3;3
24012;PMS7003;12220;50.194;18.948;2022-07-12T04:24:18;3;3;3
24012;PMS7003;12220;50.194;18.948;2022-07-12T04:26:19;3;3;3
24012;PMS7003;12220;50.194;18.948;2022-07-12T04:28:29;4;4;4
24012;PMS7003;12220;50.194;18.948;2022-07-12T04:30:30;6;2;2
24012;PMS7003;12220;50.194;18.948;2022-07-12T04:32:32;3;3;3
24012;PMS7003;12220;50.194;18.948;2022-07-12T04:34:33;3;3;2
24012;PMS7003;12220;50.194;18.948;2022-07-12T04:36:44;4;4;4
24012;PMS7003;12220;50.194;18.948;2022-07-12T04:38:47;3;3;3
24012;PMS7003;12220;50.194;18.948;2022-07-12T04:40:49;4;3;3
24012;PMS7003;12220;50.194;18.948;2022-07-12T04:42:50;3;3;3
24012;PMS7003;12220;50.194;18.948;2022-07-12T04:44:59;3;3;3
24012;PMS7003;12220;50.194;18.948;2022-07-12T04:47:00;4;2;2
24012;PMS7003;12220;50.194;18.948;2022-07-12T04:49:01;5;5;4
24012;PMS7003;12220;50.194;18.948;2022-07-12T04:51:03;4;4;4
24012;PMS7003;12220;50.194;18.948;2022-07-12T04:53:14;4;4;3
24012;PMS7003;12220;50.194;18.948;2022-07-12T04:55:15;8;6;6
24012;PMS7003;12220;50.194;18.948;2022-07-12T04:57:16;7;7;5
24012;PMS7003;12220;50.194;18.948;2022-07-12T04:59:21;7;4;4
24012;PMS7003;12220;50.194;18.948;2022-07-12T05:01:29;6;3;2
24012;PMS7003;12220;50.194;18.948;2022-07-12T05:03:31;5;5;4
24012;PMS7003;12220;50.194;18.948;2022-07-12T05:05:32;5;5;5
24012;PMS7003;12220;50.194;18.948;2022-07-12T05:07:33;4;3;2
24012;PMS7003;12220;50.194;18.948;2022-07-12T05:09:43;5;5;4
24012;PMS7003;12220;50.194;18.948;2022-07-12T05:11:45;6;6;5
24012;PMS7003;12220;50.194;18.948;2022-07-12T05:13:46;6;6;5
24012;PMS7003;12220;50.194;18.948;2022-07-12T05:15:48;6;6;6
24012;PMS7003;12220;50.194;18.948;2022-07-12T05:17:58;6;2;1
24012;PMS7003;12220;50.194;18.948;2022-07-12T05:20:02;7;5;4
24012;PMS7003;12220;50.194;18.948;2022-07-12T05:22:04;6;6;6
24012;PMS7003;12220;50.194;18.948;2022-07-12T05:24:06;5;5;5
24012;PMS7003;12220;50.194;18.948;2022-07-12T05:26:13;5;5;5
24012;PMS7003;12220;50.194;18.948;2022-07-12T05:28:14;5;4;4
24012;PMS7003;12220;50.194;18.948;2022-07-12T05:30:19;7;7;6
24012;PMS7003;12220;50.194;18.948;2022-07-12T05:32:22;5;5;4
24012;PMS7003;12220;50.194;18.948;2022-07-12T05:39:05;12;8;7
24012;PMS7003;12220;50.194;18.948;2022-07-12T05:41:07;14;13;9
24012;PMS7003;12220;50.194;18.948;2022-07-12T05:43:08;8;8;6
24012;PMS7003;12220;50.194;18.948;2022-07-12T05:45:09;11;11;8
24012;PMS7003;12220;50.194;18.948;2022-07-12T05:47:20;9;9;8
24012;PMS7003;12220;50.194;18.948;2022-07-12T05:49:21;10;10;8
24012;PMS7003;12220;50.194;18.948;2022-07-12T05:51:23;7;7;6
24012;PMS7003;12220;50.194;18.948;2022-07-12T05:53:36;10;10;7
24012;PMS7003;12220;50.194;18.948;2022-07-12T05:55:37;11;9;8
24012;PMS7003;12220;50.194;18.948;2022-07-12T05:57:39;11;9;8
24012;PMS7003;12220;50.194;18.948;2022-07-12T05:59:40;14;14;11
24012;PMS7003;12220;50.194;18.948;2022-07-12T06:01:41;12;12;11
24012;PMS7003;12220;50.194;18.948;2022-07-12T06:03:50;10;9;8
24012;PMS7003;12220;50.194;18.948;2022-07-12T06:05:51;10;10;9
24012;PMS7003;12220;50.194;18.948;2022-07-12T06:07:53;10;10;8
24012;PMS7003;12220;50.194;18.948;2022-07-12T06:09:54;9;9;7
24012;PMS7003;12220;50.194;18.948;2022-07-12T06:12:05;8;8;8
24012;PMS7003;12220;50.194;18.948;2022-07-12T06:14:10;8;8;8
24012;PMS7003;12220;50.194;18.948;2022-07-12T06:16:11;10;10;8
24012;PMS7003;12220;50.194;18.948;2022-07-12T06:18:13;8;8;7
24012;PMS7003;12220;50.194;18.948;2022-07-12T06:20:20;7;7;6
24012;PMS7003;12220;50.194;18.948;2022-07-12T06:22:21;7;7;7
24012;PMS7003;12220;50.194;18.948;2022-07-12T06:24:22;6;6;6
24012;PMS7003;12220;50.194;18.948;2022-07-12T06:26:24;6;6;5
24012;PMS7003;12220;50.194;18.948;2022-07-12T06:28:34;9;9;8
24012;PMS7003;12220;50.194;18.948;2022-07-12T06:30:38;8;8;7
24012;PMS7003;12220;50.194;18.948;2022-07-12T06:32:39;6;6;6
24012;PMS7003;12220;50.194;18.948;2022-07-12T06:34:42;8;4;3
24012;PMS7003;12220;50.194;18.948;2022-07-12T06:36:52;5;5;5
24012;PMS7003;12220;50.194;18.948;2022-07-12T06:38:56;8;8;7
24012;PMS7003;12220;50.194;18.948;2022-07-12T06:40:57;7;7;7
24012;PMS7003;12220;50.194;18.948;2022-07-12T06:42:59;7;6;4
24012;PMS7003;12220;50.194;18.948;2022-07-12T06:45:05;6;6;5
24012;PMS7003;12220;50.194;18.948;2022-07-12T06:47:10;3;3;3
24012;PMS7003;12220;50.194;18.948;2022-07-12T06:49:11;7;7;6
24012;PMS7003;12220;50.194;18.948;2022-07-12T06:51:12;6;6;5
24012;PMS7003;12220;50.194;18.948;2022-07-12T06:53:19;9;9;8
24012;PMS7003;12220;50.194;18.948;2022-07-12T06:55:21;6;6;5
24012;PMS7003;12220;50.194;18.948;2022-07-12T06:57:22;2;2;2
24012;PMS7003;12220;50.194;18.948;2022-07-12T06:59:24;5;5;5
24012;PMS7003;12220;50.194;18.948;2022-07-12T07:01:34;5;5;4
24012;PMS7003;12220;50.194;18.948;2022-07-12T07:03:35;5;5;4
24012;PMS7003;12220;50.194;18.948;2022-07-12T07:05:37;6;6;5
24012;PMS7003;12220;50.194;18.948;2022-07-12T07:07:38;4;4;4
24012;PMS7003;12220;50.194;18.948;2022-07-12T07:09:49;4;4;3
24012;PMS7003;12220;50.194;18.948;2022-07-12T07:11:50;2;2;1
24012;PMS7003;12220;50.194;18.948;2022-07-12T07:13:53;5;4;4
24012;PMS7003;12220;50.194;18.948;2022-07-12T07:15:56;3;3;3
24012;PMS7003;12220;50.194;18.948;2022-07-12T07:18:04;4;4;4
24012;PMS7003;12220;50.194;18.948;2022-07-12T07:20:05;3;3;3
24012;PMS7003;12220;50.194;18.948;2022-07-12T07:22:07;2;2;2
24012;PMS7003;12220;50.194;18.948;2022-07-12T07:24:10;4;4;4
24012;PMS7003;12220;50.194;18.948;2022-07-12T07:26:19;4;3;3
24012;PMS7003;12220;50.194;18.948;2022-07-12T07:28:21;4;4;3
24012;PMS7003;12220;50.194;18.948;2022-07-12T07:30:25;2;2;2
24012;PMS7003;12220;50.194;18.948;2022-07-12T07:32:38;3;3;3
24012;PMS7003;12220;50.194;18.948;2022-07-12T07:34:40;2;2;2
24012;PMS7003;12220;50.194;18.948;2022-07-12T07:36:42;3;3;3
24012;PMS7003;12220;50.194;18.948;2022-07-12T07:38:49;0;0;0
24012;PMS7003;12220;50.194;18.948;2022-07-12T07:40:52;2;2;2
24012;PMS7003;12220;50.194;18.948;2022-07-12T07:42:55;4;4;4
24012;PMS7003;12220;50.194;18.948;2022-07-12T07:44:59;2;2;2
24012;PMS7003;12220;50.194;18.948;2022-07-12T07:47:01;2;2;2
24012;PMS7003;12220;50.194;18.948;2022-07-12T07:49:04;1;1;1
24012;PMS7003;12220;50.194;18.948;2022-07-12T07:51:09;2;2;2
24012;PMS7003;12220;50.194;18.948;2022-07-12T07:53:14;2;1;0
24012;PMS7003;12220;50.194;18.948;2022-07-12T07:55:15;2;2;2
24012;PMS7003;12220;50.194;18.948;2022-07-12T07:57:17;2;2;2
24012;PMS7003;12220;50.194;18.948;2022-07-12T07:59:30;3;3;3
24012;PMS7003;12220;50.194;18.948;2022-07-12T08:01:31;2;2;2
24012;PMS7003;12220;50.194;18.948;2022-07-12T08:03:47;2;2;2
24012;PMS7003;12220;50.194;18.948;2022-07-12T08:05:49;2;2;2
24012;PMS7003;12220;50.194;18.948;2022-07-12T08:07:52;1;1;1
24012;PMS7003;12220;50.194;18.948;2022-07-12T08:10:01;1;1;1
24012;PMS7003;12220;50.194;18.948;2022-07-12T08:12:15;2;2;2
24012;PMS7003;12220;50.194;18.948;2022-07-12T08:14:20;3;3;3
24012;PMS7003;12220;50.194;18.948;2022-07-12T08:16:25;4;4;3
24012;PMS7003;12220;50.194;18.948;2022-07-12T08:18:29;4;4;3
24012;PMS7003;12220;50.194;18.948;2022-07-12T08:20:33;4;4;4
24012;PMS7003;12220;50.194;18.948;2022-07-12T08:24:46;2;2;2
24012;PMS7003;12220;50.194;18.948;2022-07-12T08:26:48;4;4;4
24012;PMS7003;12220;50.194;18.948;2022-07-12T08:28:57;3;3;2
24012;PMS7003;12220;50.194;18.948;2022-07-12T08:31:09;2;2;2
24012;PMS7003;12220;50.194;18.948;2022-07-12T08:33:13;7;2;2
24012;PMS7003;12220;50.194;18.948;2022-07-12T08:35:23;3;3;3
24012;PMS7003;12220;50.194;18.948;2022-07-12T08:37:24;4;4;3
24012;PMS7003;12220;50.194;18.948;2022-07-12T08:39:29;1;1;1
24012;PMS7003;12220;50.194;18.948;2022-07-12T08:41:31;2;0;0
24012;PMS7003;12220;50.194;18.948;2022-07-12T08:43:37;2;2;2
24012;PMS7003;12220;50.194;18.948;2022-07-12T08:45:39;1;1;1
24012;PMS7003;12220;50.194;18.948;2022-07-12T08:52:24;0;0;0
24012;PMS7003;12220;50.194;18.948;2022-07-12T08:54:27;3;1;1
24012;PMS7003;12220;50.194;18.948;2022-07-12T08:56:44;1;1;1
24012;PMS7003;12220;50.194;18.948;2022-07-12T09:01:07;1;1;1
24012;PMS7003;12220;50.194;18.948;2022-07-12T09:03:08;1;1;1
24012;PMS7003;12220;50.194;18.948;2022-07-12T09:05:15;1;1;1
24012;PMS7003;12220;50.194;18.948;2022-07-12T09:07:18;1;1;0
24012;PMS7003;12220;50.194;18.948;2022-07-12T09:11:31;2;1;1
24012;PMS7003;12220;50.194;18.948;2022-07-12T09:15:48;3;3;3
24012;PMS7003;12220;50.194;18.948;2022-07-12T09:17:54;1;1;1
24012;PMS7003;12220;50.194;18.948;2022-07-12T09:20:02;2;1;1
24012;PMS7003;12220;50.194;18.948;2022-07-12T09:22:05;1;1;1
24012;PMS7003;12220;50.194;18.948;2022-07-12T09:24:25;4;2;2
24012;PMS7003;12220;50.194;18.948;2022-07-12T09:26:31;2;2;2
24012;PMS7003;12220;50.194;18.948;2022-07-12T09:28:34;1;1;1
24012;PMS7003;12220;50.194;18.948;2022-07-12T09:30:36;1;1;1
24012;PMS7003;12220;50.194;18.948;2022-07-12T09:35:05;2;1;1
24012;PMS7003;12220;50.194;18.948;2022-07-12T09:37:18;0;0;0
24012;PMS7003;12220;50.194;18.948;2022-07-12T09:39:25;1;1;1
24012;PMS7003;12220;50.194;18.948;2022-07-12T09:41:27;1;1;1
24012;PMS7003;12220;50.194;18.948;2022-07-12T09:43:29;0;0;0
24012;PMS7003;12220;50.194;18.948;2022-07-12T09:45:31;1;1;1
24012;PMS7003;12220;50.194;18.948;2022-07-12T09:47:40;2;2;1
24012;PMS7003;12220;50.194;18.948;2022-07-12T09:49:45;1;1;1
24012;PMS7003;12220;50.194;18.948;2022-07-12T09:51:47;1;1;1
24012;PMS7003;12220;50.194;18.948;2022-07-12T09:53:53;1;1;1
24012;PMS7003;12220;50.194;18.948;2022-07-12T09:55:55;2;2;1
24012;PMS7003;12220;50.194;18.948;2022-07-12T10:00:11;1;1;1
24012;PMS7003;12220;50.194;18.948;2022-07-12T10:02:14;2;2;1
24012;PMS7003;12220;50.194;18.948;2022-07-12T10:04:19;0;0;0
24012;PMS7003;12220;50.194;18.948;2022-07-12T10:06:37;1;1;1
24012;PMS7003;12220;50.194;18.948;2022-07-12T10:08:47;2;2;2
24012;PMS7003;12220;50.194;18.948;2022-07-12T10:10:49;0;0;0
24012;PMS7003;12220;50.194;18.948;2022-07-12T10:12:52;4;2;1
24012;PMS7003;12220;50.194;18.948;2022-07-12T10:17:21;0;0;0
24012;PMS7003;12220;50.194;18.948;2022-07-12T10:19:40;4;1;1
24012;PMS7003;12220;50.194;18.948;2022-07-12T10:21:41;0;0;0
24012;PMS7003;12220;50.194;18.948;2022-07-12T10:23:42;1;1;1
24012;PMS7003;12220;50.194;18.948;2022-07-12T10:25:44;0;0;0
24012;PMS7003;12220;50.194;18.948;2022-07-12T10:27:51;0;0;0
24012;PMS7003;12220;50.194;18.948;2022-07-12T10:30:11;0;0;0
24012;PMS7003;12220;50.194;18.948;2022-07-12T10:34:23;0;0;0
24012;PMS7003;12220;50.194;18.948;2022-07-12T10:36:30;0;0;0
24012;PMS7003;12220;50.194;18.948;2022-07-12T10:38:33;0;0;0
24012;PMS7003;12220;50.194;18.948;2022-07-12T10:40:38;0;0;0
24012;PMS7003;12220;50.194;18.948;2022-07-12T10:45:08;0;0;0
24012;PMS7003;12220;50.194;18.948;2022-07-12T10:47:14;0;0;0
24012;PMS7003;12220;50.194;18.948;2022-07-12T10:49:24;0;0;0
24012;PMS7003;12220;50.194;18.948;2022-07-12T10:51:33;0;0;0
24012;PMS7003;12220;50.194;18.948;2022-07-12T10:53:35;0;0;0
24012;PMS7003;12220;50.194;18.948;2022-07-12T10:56:29;0;0;0
24012;PMS7003;12220;50.194;18.948;2022-07-12T10:57:58;0;0;0
24012;PMS7003;12220;50.194;18.948;2022-07-12T11:00:00;1;1;1
24012;PMS7003;12220;50.194;18.948;2022-07-12T11:02:09;1;1;1
24012;PMS7003;12220;50.194;18.948;2022-07-12T11:04:11;2;2;2
24012;PMS7003;12220;50.194;18.948;2022-07-12T11:06:14;1;1;1
24012;PMS7003;12220;50.194;18.948;2022-07-12T11:08:19;0;0;0
24012;PMS7003;12220;50.194;18.948;2022-07-12T11:10:24;1;1;1
24012;PMS7003;12220;50.194;18.948;2022-07-12T11:12:28;1;1;1
24012;PMS7003;12220;50.194;18.948;2022-07-12T11:14:31;2;0;0
24012;PMS7003;12220;50.194;18.948;2022-07-12T11:16:42;1;1;1
24012;PMS7003;12220;50.194;18.948;2022-07-12T11:18:47;0;0;0
24012;PMS7003;12220;50.194;18.948;2022-07-12T11:23:21;1;1;1
24012;PMS7003;12220;50.194;18.948;2022-07-12T11:25:23;1;1;0
24012;PMS7003;12220;50.194;18.948;2022-07-12T11:27:28;1;1;1
24012;PMS7003;12220;50.194;18.948;2022-07-12T11:29:33;2;2;2
24012;PMS7003;12220;50.194;18.948;2022-07-12T11:31:36;1;1;1
24012;PMS7003;12220;50.194;18.948;2022-07-12T11:33:47;2;2;2
24012;PMS7003;12220;50.194;18.948;2022-07-12T11:35:46;2;2;2
24012;PMS7003;12220;50.194;18.948;2022-07-12T11:39:57;1;1;1
24012;PMS7003;12220;50.194;18.948;2022-07-12T11:42:02;1;1;1
24012;PMS7003;12220;50.194;18.948;2022-07-12T11:44:05;2;2;2
24012;PMS7003;12220;50.194;18.948;2022-07-12T11:46:09;1;1;1
24012;PMS7003;12220;50.194;18.948;2022-07-12T11:48:11;2;2;2
24012;PMS7003;12220;50.194;18.948;2022-07-12T11:50:16;1;1;1
24012;PMS7003;12220;50.194;18.948;2022-07-12T11:52:19;2;2;2
24012;PMS7003;12220;50.194;18.948;2022-07-12T11:54:26;2;2;2
24012;PMS7003;12220;50.194;18.948;2022-07-12T11:56:30;1;1;1
24012;PMS7003;12220;50.194;18.948;2022-07-12T11:58:34;0;0;0
24012;PMS7003;12220;50.194;18.948;2022-07-12T12:00:39;1;1;1
24012;PMS7003;12220;50.194;18.948;2022-07-12T12:02:41;0;0;0
24012;PMS7003;12220;50.194;18.948;2022-07-12T12:07:05;1;1;1
24012;PMS7003;12220;50.194;18.948;2022-07-12T12:09:06;1;1;1
24012;PMS7003;12220;50.194;18.948;2022-07-12T12:11:07;2;2;2
24012;PMS7003;12220;50.194;18.948;2022-07-12T12:13:13;0;0;0
24012;PMS7003;12220;50.194;18.948;2022-07-12T12:15:26;1;1;1
24012;PMS7003;12220;50.194;18.948;2022-07-12T12:22:42;1;1;1
24012;PMS7003;12220;50.194;18.948;2022-07-12T12:24:34;0;0;0
24012;PMS7003;12220;50.194;18.948;2022-07-12T12:26:36;1;1;1
24012;PMS7003;12220;50.194;18.948;2022-07-12T12:33:04;2;2;2
24012;PMS7003;12220;50.194;18.948;2022-07-12T12:35:09;0;0;0
24012;PMS7003;12220;50.194;18.948;2022-07-12T12:37:14;1;1;1
24012;PMS7003;12220;50.194;18.948;2022-07-12T12:39:28;0;0;0
24012;PMS7003;12220;50.194;18.948;2022-07-12T12:41:28;0;0;0
24012;PMS7003;12220;50.194;18.948;2022-07-12T12:43:41;1;1;1
24012;PMS7003;12220;50.194;18.948;2022-07-12T12:50:06;1;1;1
24012;PMS7003;12220;50.194;18.948;2022-07-12T12:52:08;1;1;1
24012;PMS7003;12220;50.194;18.948;2022-07-12T12:54:10;1;1;1
24012;PMS7003;12220;50.194;18.948;2022-07-12T12:56:12;1;1;1
24012;PMS7003;12220;50.194;18.948;2022-07-12T12:58:15;1;1;1
24012;PMS7003;12220;50.194;18.948;2022-07-12T13:00:17;1;1;1
24012;PMS7003;12220;50.194;18.948;2022-07-12T13:02:18;1;1;1
24012;PMS7003;12220;50.194;18.948;2022-07-12T13:11:44;1;1;1
24012;PMS7003;12220;50.194;18.948;2022-07-12T13:13:57;1;1;1
24012;PMS7003;12220;50.194;18.948;2022-07-12T13:16:00;1;1;1
24012;PMS7003;12220;50.194;18.948;2022-07-12T13:18:12;1;1;1
24012;PMS7003;12220;50.194;18.948;2022-07-12T13:20:15;1;1;1
24012;PMS7003;12220;50.194;18.948;2022-07-12T13:22:16;0;0;0
24012;PMS7003;12220;50.194;18.948;2022-07-12T13:24:18;1;1;1
24012;PMS7003;12220;50.194;18.948;2022-07-12T13:26:26;1;1;1
24012;PMS7003;12220;50.194;18.948;2022-07-12T13:28:28;0;0;0
24012;PMS7003;12220;50.194;18.948;2022-07-12T13:30:33;0;0;0
24012;PMS7003;12220;50.194;18.948;2022-07-12T13:32:34;1;1;1
24012;PMS7003;12220;50.194;18.948;2022-07-12T13:34:41;0;0;0
24012;PMS7003;12220;50.194;18.948;2022-07-12T13:36:46;0;0;0
24012;PMS7003;12220;50.194;18.948;2022-07-12T13:38:47;0;0;0
24012;PMS7003;12220;50.194;18.948;2022-07-12T13:40:49;1;1;1
24012;PMS7003;12220;50.194;18.948;2022-07-12T13:42:56;1;1;0
24012;PMS7003;12220;50.194;18.948;2022-07-12T13:44:59;1;1;1
24012;PMS7003;12220;50.194;18.948;2022-07-12T13:47:01;0;0;0
24012;PMS7003;12220;50.194;18.948;2022-07-12T13:49:04;0;0;0
24012;PMS7003;12220;50.194;18.948;2022-07-12T13:51:11;0;0;0
24012;PMS7003;12220;50.194;18.948;2022-07-12T13:53:15;1;1;1
24012;PMS7003;12220;50.194;18.948;2022-07-12T13:55:17;0;0;0
24012;PMS7003;12220;50.194;18.948;2022-07-12T13:57:19;0;0;0
24012;PMS7003;12220;50.194;18.948;2022-07-12T13:59:26;0;0;0
24012;PMS7003;12220;50.194;18.948;2022-07-12T14:01:27;0;0;0
24012;PMS7003;12220;50.194;18.948;2022-07-12T14:03:28;0;0;0
24012;PMS7003;12220;50.194;18.948;2022-07-12T14:05:29;0;0;0
24012;PMS7003;12220;50.194;18.948;2022-07-12T14:07:41;0;0;0
24012;PMS7003;12220;50.194;18.948;2022-07-12T14:09:48;1;1;1
24012;PMS7003;12220;50.194;18.948;2022-07-12T14:11:52;0;0;0
24012;PMS7003;12220;50.194;18.948;2022-07-12T14:13:58;1;1;1
24012;PMS7003;12220;50.194;18.948;2022-07-12T14:16:02;1;1;1
24012;PMS7003;12220;50.194;18.948;2022-07-12T14:18:04;0;0;0
24012;PMS7003;12220;50.194;18.948;2022-07-12T14:20:07;0;0;0
24012;PMS7003;12220;50.194;18.948;2022-07-12T14:22:12;0;0;0
24012;PMS7003;12220;50.194;18.948;2022-07-12T14:24:16;1;1;1
24012;PMS7003;12220;50.194;18.948;2022-07-12T14:26:17;1;1;1
24012;PMS7003;12220;50.194;18.948;2022-07-12T14:28:21;2;2;1
24012;PMS7003;12220;50.194;18.948;2022-07-12T14:30:23;2;0;0
24012;PMS7003;12220;50.194;18.948;2022-07-12T14:32:29;1;1;1
24012;PMS7003;12220;50.194;18.948;2022-07-12T14:34:30;1;1;1
24012;PMS7003;12220;50.194;18.948;2022-07-12T14:36:32;0;0;0
24012;PMS7003;12220;50.194;18.948;2022-07-12T14:38:33;1;1;1
24012;PMS7003;12220;50.194;18.948;2022-07-12T14:40:43;1;1;1